sensor_id;sensor_type;location;lat;lon;timestamp;temperature;humidity
12436;DHT22;6282;51.440;6.938;2022-10-18T00:01:42;15.60;99.90
12436;DHT22;6282;51.440;6.938;2022-10-18T00:04:09;15.70;99.90
12436;DHT22;6282;51.440;6.938;2022-10-18T00:06:37;15.60;99.90
12436;DHT22;6282;51.440;6.938;2022-10-18T00:09:04;15.60;99.90
12436;DHT22;6282;51.440;6.938;2022-10-18T00:11:31;15.60;99.90
12436;DHT22;6282;51.440;6.938;2022-10-18T00:13:58;15.60;99.90
12436;DHT22;6282;51.440;6.938;2022-10-18T00:16:25;15.60;99.90
12436;DHT22;6282;51.440;6.938;2022-10-18T00:18:51;15.60;99.90
12436;DHT22;6282;51.440;6.938;2022-10-18T00:21:20;15.60;99.90
12436;DHT22;6282;51.440;6.938;2022-10-18T00:23:49;15.60;99.90
12436;DHT22;6282;51.440;6.938;2022-10-18T00:26:18;15.60;99.90
12436;DHT22;6282;51.440;6.938;2022-10-18T00:28:46;15.60;99.90
12436;DHT22;6282;51.440;6.938;2022-10-18T00:31:16;15.50;99.90
12436;DHT22;6282;51.440;6.938;2022-10-18T00:33:45;15.60;99.90
12436;DHT22;6282;51.440;6.938;2022-10-18T00:36:13;15.60;99.90
12436;DHT22;6282;51.440;6.938;2022-10-18T00:38:40;15.70;99.90
12436;DHT22;6282;51.440;6.938;2022-10-18T00:41:10;15.70;99.90
12436;DHT22;6282;51.440;6.938;2022-10-18T00:43:57;15.70;99.90
12436;DHT22;6282;51.440;6.938;2022-10-18T00:46:25;15.50;99.90
12436;DHT22;6282;51.440;6.938;2022-10-18T00:48:54;15.70;99.90
12436;DHT22;6282;51.440;6.938;2022-10-18T00:51:22;15.70;99.90
12436;DHT22;6282;51.440;6.938;2022-10-18T00:53:50;15.70;99.90
12436;DHT22;6282;51.440;6.938;2022-10-18T00:56:18;15.70;99.90
12436;DHT22;6282;51.440;6.938;2022-10-18T00:58:46;15.80;99.90
12436;DHT22;6282;51.440;6.938;2022-10-18T01:01:14;15.70;99.90
12436;DHT22;6282;51.440;6.938;2022-10-18T01:03:41;15.70;99.90
12436;DHT22;6282;51.440;6.938;2022-10-18T01:06:08;15.80;99.90
12436;DHT22;6282;51.440;6.938;2022-10-18T01:08:49;15.70;99.90
12436;DHT22;6282;51.440;6.938;2022-10-18T01:11:51;15.70;99.90
12436;DHT22;6282;51.440;6.938;2022-10-18T01:14:30;15.70;99.90
12436;DHT22;6282;51.440;6.938;2022-10-18T01:17:02;15.70;99.90
12436;DHT22;6282;51.440;6.938;2022-10-18T01:22:49;15.70;99.90
12436;DHT22;6282;51.440;6.938;2022-10-18T01:25:26;15.70;99.90
12436;DHT22;6282;51.440;6.938;2022-10-18T01:28:05;15.70;99.90
12436;DHT22;6282;51.440;6.938;2022-10-18T01:30:48;15.70;99.90
12436;DHT22;6282;51.440;6.938;2022-10-18T01:33:32;15.70;99.90
12436;DHT22;6282;51.440;6.938;2022-10-18T01:36:08;15.60;99.90
12436;DHT22;6282;51.440;6.938;2022-10-18T01:38:37;15.60;99.90
12436;DHT22;6282;51.440;6.938;2022-10-18T01:41:06;15.70;99.90
12436;DHT22;6282;51.440;6.938;2022-10-18T01:43:34;15.70;99.90
12436;DHT22;6282;51.440;6.938;2022-10-18T01:46:04;15.80;99.90
12436;DHT22;6282;51.440;6.938;2022-10-18T01:48:31;15.80;99.90
12436;DHT22;6282;51.440;6.938;2022-10-18T01:51:02;15.80;99.90
12436;DHT22;6282;51.440;6.938;2022-10-18T01:53:30;15.70;99.90
12436;DHT22;6282;51.440;6.938;2022-10-18T01:56:10;15.60;99.90
12436;DHT22;6282;51.440;6.938;2022-10-18T01:58:43;15.60;99.90
12436;DHT22;6282;51.440;6.938;2022-10-18T02:01:20;15.60;99.90
12436;DHT22;6282;51.440;6.938;2022-10-18T02:03:55;15.70;99.90
12436;DHT22;6282;51.440;6.938;2022-10-18T02:06:27;15.60;99.90
12436;DHT22;6282;51.440;6.938;2022-10-18T02:09:01;15.70;99.90
12436;DHT22;6282;51.440;6.938;2022-10-18T02:11:31;15.70;99.90
12436;DHT22;6282;51.440;6.938;2022-10-18T02:14:02;15.70;99.90
12436;DHT22;6282;51.440;6.938;2022-10-18T02:16:36;15.70;99.90
12436;DHT22;6282;51.440;6.938;2022-10-18T02:19:07;15.60;99.90
12436;DHT22;6282;51.440;6.938;2022-10-18T02:21:37;15.70;99.90
12436;DHT22;6282;51.440;6.938;2022-10-18T02:24:06;15.60;99.90
12436;DHT22;6282;51.440;6.938;2022-10-18T02:26:33;15.60;99.90
12436;DHT22;6282;51.440;6.938;2022-10-18T02:29:00;15.60;99.90
12436;DHT22;6282;51.440;6.938;2022-10-18T02:31:32;15.70;99.90
12436;DHT22;6282;51.440;6.938;2022-10-18T02:34:06;15.50;99.90
12436;DHT22;6282;51.440;6.938;2022-10-18T02:36:39;15.50;99.90
12436;DHT22;6282;51.440;6.938;2022-10-18T02:39:12;15.70;99.90
12436;DHT22;6282;51.440;6.938;2022-10-18T02:41:40;15.60;99.90
12436;DHT22;6282;51.440;6.938;2022-10-18T02:44:08;15.40;99.90
12436;DHT22;6282;51.440;6.938;2022-10-18T02:46:36;15.40;99.90
12436;DHT22;6282;51.440;6.938;2022-10-18T02:49:03;15.60;99.90
12436;DHT22;6282;51.440;6.938;2022-10-18T02:51:29;15.50;99.90
12436;DHT22;6282;51.440;6.938;2022-10-18T02:53:56;15.50;99.90
12436;DHT22;6282;51.440;6.938;2022-10-18T02:56:23;15.60;99.90
12436;DHT22;6282;51.440;6.938;2022-10-18T02:58:50;15.50;99.90
12436;DHT22;6282;51.440;6.938;2022-10-18T03:01:17;15.50;99.90
12436;DHT22;6282;51.440;6.938;2022-10-18T03:03:45;15.50;99.90
12436;DHT22;6282;51.440;6.938;2022-10-18T03:06:12;15.60;99.90
12436;DHT22;6282;51.440;6.938;2022-10-18T03:08:39;15.60;99.90
12436;DHT22;6282;51.440;6.938;2022-10-18T03:11:06;15.70;99.90
12436;DHT22;6282;51.440;6.938;2022-10-18T03:13:32;15.80;99.90
12436;DHT22;6282;51.440;6.938;2022-10-18T03:16:00;15.70;99.90
12436;DHT22;6282;51.440;6.938;2022-10-18T03:18:27;15.80;99.90
12436;DHT22;6282;51.440;6.938;2022-10-18T03:20:55;15.70;99.90
12436;DHT22;6282;51.440;6.938;2022-10-18T03:23:21;15.80;99.90
12436;DHT22;6282;51.440;6.938;2022-10-18T03:25:48;15.80;99.90
12436;DHT22;6282;51.440;6.938;2022-10-18T03:28:15;15.80;99.90
12436;DHT22;6282;51.440;6.938;2022-10-18T03:30:42;15.80;99.90
12436;DHT22;6282;51.440;6.938;2022-10-18T03:33:09;15.70;99.90
12436;DHT22;6282;51.440;6.938;2022-10-18T03:35:35;15.80;99.90
12436;DHT22;6282;51.440;6.938;2022-10-18T03:38:04;15.80;99.90
12436;DHT22;6282;51.440;6.938;2022-10-18T03:40:30;15.80;99.90
12436;DHT22;6282;51.440;6.938;2022-10-18T03:42:57;15.80;99.90
12436;DHT22;6282;51.440;6.938;2022-10-18T03:45:24;15.80;99.90
12436;DHT22;6282;51.440;6.938;2022-10-18T03:47:51;15.90;99.90
12436;DHT22;6282;51.440;6.938;2022-10-18T03:50:18;15.80;99.90
12436;DHT22;6282;51.440;6.938;2022-10-18T03:52:45;15.80;99.90
12436;DHT22;6282;51.440;6.938;2022-10-18T03:55:13;15.80;99.90
12436;DHT22;6282;51.440;6.938;2022-10-18T03:57:40;15.80;99.90
12436;DHT22;6282;51.440;6.938;2022-10-18T04:00:08;15.70;99.90
12436;DHT22;6282;51.440;6.938;2022-10-18T04:02:35;15.70;99.90
12436;DHT22;6282;51.440;6.938;2022-10-18T04:05:02;15.60;99.90
12436;DHT22;6282;51.440;6.938;2022-10-18T04:07:28;15.70;99.90
12436;DHT22;6282;51.440;6.938;2022-10-18T04:09:55;15.80;99.90
12436;DHT22;6282;51.440;6.938;2022-10-18T04:12:23;15.80;99.90
12436;DHT22;6282;51.440;6.938;2022-10-18T04:14:50;15.80;99.90
12436;DHT22;6282;51.440;6.938;2022-10-18T04:17:17;15.80;99.90
12436;DHT22;6282;51.440;6.938;2022-10-18T04:19:44;15.80;99.90
12436;DHT22;6282;51.440;6.938;2022-10-18T04:22:11;15.80;99.90
12436;DHT22;6282;51.440;6.938;2022-10-18T04:24:37;15.80;99.90
12436;DHT22;6282;51.440;6.938;2022-10-18T04:27:06;15.80;99.90
12436;DHT22;6282;51.440;6.938;2022-10-18T04:29:34;15.90;99.90
12436;DHT22;6282;51.440;6.938;2022-10-18T04:32:01;15.90;99.90
12436;DHT22;6282;51.440;6.938;2022-10-18T04:34:28;15.80;99.90
12436;DHT22;6282;51.440;6.938;2022-10-18T04:36:54;15.90;99.90
12436;DHT22;6282;51.440;6.938;2022-10-18T04:39:21;15.80;99.90
12436;DHT22;6282;51.440;6.938;2022-10-18T04:41:48;15.80;99.90
12436;DHT22;6282;51.440;6.938;2022-10-18T04:44:15;15.90;99.90
12436;DHT22;6282;51.440;6.938;2022-10-18T04:46:43;15.80;99.90
12436;DHT22;6282;51.440;6.938;2022-10-18T04:49:10;15.80;99.90
12436;DHT22;6282;51.440;6.938;2022-10-18T04:51:36;15.90;99.90
12436;DHT22;6282;51.440;6.938;2022-10-18T04:54:03;15.90;99.90
12436;DHT22;6282;51.440;6.938;2022-10-18T04:56:30;15.90;99.90
12436;DHT22;6282;51.440;6.938;2022-10-18T04:58:57;15.90;99.90
12436;DHT22;6282;51.440;6.938;2022-10-18T05:01:24;15.90;99.90
12436;DHT22;6282;51.440;6.938;2022-10-18T05:03:53;15.80;99.90
12436;DHT22;6282;51.440;6.938;2022-10-18T05:06:21;15.80;99.90
12436;DHT22;6282;51.440;6.938;2022-10-18T05:08:48;15.80;99.90
12436;DHT22;6282;51.440;6.938;2022-10-18T05:11:14;15.80;99.90
12436;DHT22;6282;51.440;6.938;2022-10-18T05:13:41;15.90;99.90
12436;DHT22;6282;51.440;6.938;2022-10-18T05:16:08;15.80;99.90
12436;DHT22;6282;51.440;6.938;2022-10-18T05:18:35;15.90;99.90
12436;DHT22;6282;51.440;6.938;2022-10-18T05:21:03;15.90;99.90
12436;DHT22;6282;51.440;6.938;2022-10-18T05:23:30;15.90;99.90
12436;DHT22;6282;51.440;6.938;2022-10-18T05:26:00;15.90;99.90
12436;DHT22;6282;51.440;6.938;2022-10-18T05:28:28;15.90;99.90
12436;DHT22;6282;51.440;6.938;2022-10-18T05:30:55;15.90;99.90
12436;DHT22;6282;51.440;6.938;2022-10-18T05:33:21;15.90;99.90
12436;DHT22;6282;51.440;6.938;2022-10-18T05:35:48;15.90;99.90
12436;DHT22;6282;51.440;6.938;2022-10-18T05:38:16;15.90;99.90
12436;DHT22;6282;51.440;6.938;2022-10-18T05:40:43;15.80;99.90
12436;DHT22;6282;51.440;6.938;2022-10-18T05:43:10;15.90;99.90
12436;DHT22;6282;51.440;6.938;2022-10-18T05:45:37;15.90;99.90
12436;DHT22;6282;51.440;6.938;2022-10-18T05:48:04;15.90;99.90
12436;DHT22;6282;51.440;6.938;2022-10-18T05:50:32;15.90;99.90
12436;DHT22;6282;51.440;6.938;2022-10-18T05:52:59;15.90;99.90
12436;DHT22;6282;51.440;6.938;2022-10-18T05:55:27;15.90;99.90
12436;DHT22;6282;51.440;6.938;2022-10-18T05:57:54;15.80;99.90
12436;DHT22;6282;51.440;6.938;2022-10-18T06:00:21;15.70;99.90
12436;DHT22;6282;51.440;6.938;2022-10-18T06:02:48;15.80;99.90
12436;DHT22;6282;51.440;6.938;2022-10-18T06:05:14;15.80;99.90
12436;DHT22;6282;51.440;6.938;2022-10-18T06:07:41;15.80;99.90
12436;DHT22;6282;51.440;6.938;2022-10-18T06:10:08;15.80;99.90
12436;DHT22;6282;51.440;6.938;2022-10-18T06:12:37;15.80;99.90
12436;DHT22;6282;51.440;6.938;2022-10-18T06:15:04;15.80;99.90
12436;DHT22;6282;51.440;6.938;2022-10-18T06:17:31;15.80;99.90
12436;DHT22;6282;51.440;6.938;2022-10-18T06:19:58;15.80;99.90
12436;DHT22;6282;51.440;6.938;2022-10-18T06:22:25;15.90;99.90
12436;DHT22;6282;51.440;6.938;2022-10-18T06:24:51;15.80;99.90
12436;DHT22;6282;51.440;6.938;2022-10-18T06:27:18;15.80;99.90
12436;DHT22;6282;51.440;6.938;2022-10-18T06:29:47;15.90;99.90
12436;DHT22;6282;51.440;6.938;2022-10-18T06:32:13;15.90;99.90
12436;DHT22;6282;51.440;6.938;2022-10-18T06:34:40;15.90;99.90
12436;DHT22;6282;51.440;6.938;2022-10-18T06:37:07;15.90;99.90
12436;DHT22;6282;51.440;6.938;2022-10-18T06:39:34;15.90;99.90
12436;DHT22;6282;51.440;6.938;2022-10-18T06:42:01;15.90;99.90
12436;DHT22;6282;51.440;6.938;2022-10-18T06:44:27;15.90;99.90
12436;DHT22;6282;51.440;6.938;2022-10-18T06:46:56;15.80;99.90
12436;DHT22;6282;51.440;6.938;2022-10-18T06:49:23;15.90;99.90
12436;DHT22;6282;51.440;6.938;2022-10-18T06:51:52;15.80;99.90
12436;DHT22;6282;51.440;6.938;2022-10-18T06:54:19;15.80;99.90
12436;DHT22;6282;51.440;6.938;2022-10-18T06:56:45;15.80;99.90
12436;DHT22;6282;51.440;6.938;2022-10-18T06:59:13;15.80;99.90
12436;DHT22;6282;51.440;6.938;2022-10-18T07:01:39;15.90;99.90
12436;DHT22;6282;51.440;6.938;2022-10-18T07:04:09;15.90;99.90
12436;DHT22;6282;51.440;6.938;2022-10-18T07:06:36;15.90;99.90
12436;DHT22;6282;51.440;6.938;2022-10-18T07:09:02;15.90;99.90
12436;DHT22;6282;51.440;6.938;2022-10-18T07:11:29;15.90;99.90
12436;DHT22;6282;51.440;6.938;2022-10-18T07:13:59;16.00;99.90
12436;DHT22;6282;51.440;6.938;2022-10-18T07:16:29;16.00;99.90
12436;DHT22;6282;51.440;6.938;2022-10-18T07:18:56;16.00;99.90
12436;DHT22;6282;51.440;6.938;2022-10-18T07:21:25;16.10;99.90
12436;DHT22;6282;51.440;6.938;2022-10-18T07:23:52;16.10;99.90
12436;DHT22;6282;51.440;6.938;2022-10-18T07:26:21;16.30;99.90
12436;DHT22;6282;51.440;6.938;2022-10-18T07:28:51;16.20;99.90
12436;DHT22;6282;51.440;6.938;2022-10-18T07:31:19;16.30;99.90
12436;DHT22;6282;51.440;6.938;2022-10-18T07:33:46;16.30;99.90
12436;DHT22;6282;51.440;6.938;2022-10-18T07:36:13;16.30;99.90
12436;DHT22;6282;51.440;6.938;2022-10-18T07:38:41;16.40;99.90
12436;DHT22;6282;51.440;6.938;2022-10-18T07:41:10;16.40;99.90
12436;DHT22;6282;51.440;6.938;2022-10-18T07:43:41;16.40;99.90
12436;DHT22;6282;51.440;6.938;2022-10-18T07:46:08;16.40;99.90
12436;DHT22;6282;51.440;6.938;2022-10-18T07:48:35;16.40;99.90
12436;DHT22;6282;51.440;6.938;2022-10-18T07:51:02;16.40;99.90
12436;DHT22;6282;51.440;6.938;2022-10-18T07:53:30;16.40;99.90
12436;DHT22;6282;51.440;6.938;2022-10-18T07:56:03;16.40;99.90
12436;DHT22;6282;51.440;6.938;2022-10-18T07:58:30;16.40;99.90
12436;DHT22;6282;51.440;6.938;2022-10-18T08:01:01;16.40;99.90
12436;DHT22;6282;51.440;6.938;2022-10-18T08:03:28;16.40;99.90
12436;DHT22;6282;51.440;6.938;2022-10-18T08:05:55;16.50;99.90
12436;DHT22;6282;51.440;6.938;2022-10-18T08:08:23;16.40;99.90
12436;DHT22;6282;51.440;6.938;2022-10-18T08:10:50;16.40;99.90
12436;DHT22;6282;51.440;6.938;2022-10-18T08:13:18;16.30;99.90
12436;DHT22;6282;51.440;6.938;2022-10-18T08:15:45;16.40;99.90
12436;DHT22;6282;51.440;6.938;2022-10-18T08:18:12;16.20;99.90
12436;DHT22;6282;51.440;6.938;2022-10-18T08:20:42;16.30;99.90
12436;DHT22;6282;51.440;6.938;2022-10-18T08:23:09;16.10;99.90
12436;DHT22;6282;51.440;6.938;2022-10-18T08:25:35;16.30;99.90
12436;DHT22;6282;51.440;6.938;2022-10-18T08:28:03;16.20;99.90
12436;DHT22;6282;51.440;6.938;2022-10-18T08:30:31;16.20;99.90
12436;DHT22;6282;51.440;6.938;2022-10-18T08:32:58;16.20;99.90
12436;DHT22;6282;51.440;6.938;2022-10-18T08:35:24;16.20;99.90
12436;DHT22;6282;51.440;6.938;2022-10-18T08:37:51;16.20;99.90
12436;DHT22;6282;51.440;6.938;2022-10-18T08:40:18;16.30;99.90
12436;DHT22;6282;51.440;6.938;2022-10-18T08:42:59;16.30;99.90
12436;DHT22;6282;51.440;6.938;2022-10-18T08:45:30;16.30;99.90
12436;DHT22;6282;51.440;6.938;2022-10-18T08:48:00;16.30;99.90
12436;DHT22;6282;51.440;6.938;2022-10-18T08:50:30;16.40;99.90
12436;DHT22;6282;51.440;6.938;2022-10-18T08:53:05;16.40;99.90
12436;DHT22;6282;51.440;6.938;2022-10-18T08:55:39;16.50;99.90
12436;DHT22;6282;51.440;6.938;2022-10-18T08:58:14;16.40;99.90
12436;DHT22;6282;51.440;6.938;2022-10-18T09:00:49;16.50;99.90
12436;DHT22;6282;51.440;6.938;2022-10-18T09:03:29;16.50;99.90
12436;DHT22;6282;51.440;6.938;2022-10-18T09:06:04;16.60;99.90
12436;DHT22;6282;51.440;6.938;2022-10-18T09:09:02;16.60;99.90
12436;DHT22;6282;51.440;6.938;2022-10-18T09:11:43;16.50;99.90
12436;DHT22;6282;51.440;6.938;2022-10-18T09:17:23;16.30;99.90
12436;DHT22;6282;51.440;6.938;2022-10-18T09:20:01;16.20;99.90
12436;DHT22;6282;51.440;6.938;2022-10-18T09:22:40;16.30;99.90
12436;DHT22;6282;51.440;6.938;2022-10-18T09:25:17;16.20;99.90
12436;DHT22;6282;51.440;6.938;2022-10-18T09:27:51;16.30;99.90
12436;DHT22;6282;51.440;6.938;2022-10-18T09:30:26;16.20;99.90
12436;DHT22;6282;51.440;6.938;2022-10-18T09:33:03;16.40;99.90
12436;DHT22;6282;51.440;6.938;2022-10-18T09:35:38;16.30;99.90
12436;DHT22;6282;51.440;6.938;2022-10-18T09:38:09;16.30;99.90
12436;DHT22;6282;51.440;6.938;2022-10-18T09:40:45;16.20;99.90
12436;DHT22;6282;51.440;6.938;2022-10-18T09:43:16;16.20;99.90
12436;DHT22;6282;51.440;6.938;2022-10-18T09:45:44;16.30;99.90
12436;DHT22;6282;51.440;6.938;2022-10-18T09:48:17;16.20;99.90
12436;DHT22;6282;51.440;6.938;2022-10-18T09:50:49;16.20;99.90
12436;DHT22;6282;51.440;6.938;2022-10-18T09:53:24;16.30;99.90
12436;DHT22;6282;51.440;6.938;2022-10-18T09:55:59;16.20;99.90
12436;DHT22;6282;51.440;6.938;2022-10-18T09:58:37;16.20;99.90
12436;DHT22;6282;51.440;6.938;2022-10-18T10:01:05;16.20;99.90
12436;DHT22;6282;51.440;6.938;2022-10-18T10:03:34;16.20;99.90
12436;DHT22;6282;51.440;6.938;2022-10-18T10:06:20;16.30;99.90
12436;DHT22;6282;51.440;6.938;2022-10-18T10:08:52;16.50;99.90
12436;DHT22;6282;51.440;6.938;2022-10-18T10:11:31;16.80;99.90
12436;DHT22;6282;51.440;6.938;2022-10-18T10:14:07;16.90;99.90
12436;DHT22;6282;51.440;6.938;2022-10-18T10:16:42;16.90;99.90
12436;DHT22;6282;51.440;6.938;2022-10-18T10:19:17;17.10;99.90
12436;DHT22;6282;51.440;6.938;2022-10-18T10:21:46;17.00;99.90
12436;DHT22;6282;51.440;6.938;2022-10-18T10:24:20;17.10;99.90
12436;DHT22;6282;51.440;6.938;2022-10-18T10:26:47;17.20;99.90
12436;DHT22;6282;51.440;6.938;2022-10-18T10:29:46;17.30;99.90
12436;DHT22;6282;51.440;6.938;2022-10-18T10:32:14;17.60;99.90
12436;DHT22;6282;51.440;6.938;2022-10-18T10:34:43;17.90;99.90
12436;DHT22;6282;51.440;6.938;2022-10-18T10:37:23;18.00;99.90
12436;DHT22;6282;51.440;6.938;2022-10-18T10:40:11;17.80;99.90
12436;DHT22;6282;51.440;6.938;2022-10-18T10:42:58;17.30;99.90
12436;DHT22;6282;51.440;6.938;2022-10-18T10:45:28;17.10;99.90
12436;DHT22;6282;51.440;6.938;2022-10-18T10:48:03;17.10;99.90
12436;DHT22;6282;51.440;6.938;2022-10-18T10:50:45;17.20;99.90
12436;DHT22;6282;51.440;6.938;2022-10-18T10:53:28;17.40;99.90
12436;DHT22;6282;51.440;6.938;2022-10-18T10:55:57;17.70;99.90
12436;DHT22;6282;51.440;6.938;2022-10-18T10:58:25;17.80;99.90
12436;DHT22;6282;51.440;6.938;2022-10-18T11:00:55;17.90;99.90
12436;DHT22;6282;51.440;6.938;2022-10-18T11:03:23;17.80;99.90
12436;DHT22;6282;51.440;6.938;2022-10-18T11:05:53;17.60;99.90
12436;DHT22;6282;51.440;6.938;2022-10-18T11:08:23;17.40;99.90
12436;DHT22;6282;51.440;6.938;2022-10-18T11:10:59;17.10;99.90
12436;DHT22;6282;51.440;6.938;2022-10-18T11:13:38;17.00;99.90
12436;DHT22;6282;51.440;6.938;2022-10-18T11:16:12;16.90;99.90
12436;DHT22;6282;51.440;6.938;2022-10-18T11:18:40;17.00;99.90
12436;DHT22;6282;51.440;6.938;2022-10-18T11:21:14;17.00;99.90
12436;DHT22;6282;51.440;6.938;2022-10-18T11:23:43;17.10;99.90
12436;DHT22;6282;51.440;6.938;2022-10-18T11:26:27;17.30;99.90
12436;DHT22;6282;51.440;6.938;2022-10-18T11:29:14;17.60;99.90
12436;DHT22;6282;51.440;6.938;2022-10-18T11:31:51;17.90;99.90
12436;DHT22;6282;51.440;6.938;2022-10-18T11:34:32;17.90;99.90
12436;DHT22;6282;51.440;6.938;2022-10-18T11:37:08;18.00;99.90
12436;DHT22;6282;51.440;6.938;2022-10-18T11:39:46;18.10;99.90
12436;DHT22;6282;51.440;6.938;2022-10-18T11:42:24;17.80;99.90
12436;DHT22;6282;51.440;6.938;2022-10-18T11:45:02;17.50;99.90
12436;DHT22;6282;51.440;6.938;2022-10-18T11:47:39;17.50;99.90
12436;DHT22;6282;51.440;6.938;2022-10-18T11:50:20;17.30;99.90
12436;DHT22;6282;51.440;6.938;2022-10-18T11:52:58;17.40;99.90
12436;DHT22;6282;51.440;6.938;2022-10-18T11:55:40;17.70;99.90
12436;DHT22;6282;51.440;6.938;2022-10-18T11:58:21;18.20;99.90
12436;DHT22;6282;51.440;6.938;2022-10-18T12:00:56;18.30;99.90
12436;DHT22;6282;51.440;6.938;2022-10-18T12:03:33;18.60;99.90
12436;DHT22;6282;51.440;6.938;2022-10-18T12:06:03;18.70;99.90
12436;DHT22;6282;51.440;6.938;2022-10-18T12:08:36;18.60;99.90
12436;DHT22;6282;51.440;6.938;2022-10-18T12:11:11;18.60;99.90
12436;DHT22;6282;51.440;6.938;2022-10-18T12:13:43;18.60;99.90
12436;DHT22;6282;51.440;6.938;2022-10-18T12:16:11;18.70;99.90
12436;DHT22;6282;51.440;6.938;2022-10-18T12:18:47;18.40;99.90
12436;DHT22;6282;51.440;6.938;2022-10-18T12:21:17;18.10;99.90
12436;DHT22;6282;51.440;6.938;2022-10-18T12:23:51;17.90;99.90
12436;DHT22;6282;51.440;6.938;2022-10-18T12:26:20;18.10;99.90
12436;DHT22;6282;51.440;6.938;2022-10-18T12:28:55;18.20;99.90
12436;DHT22;6282;51.440;6.938;2022-10-18T12:31:28;18.20;99.90
12436;DHT22;6282;51.440;6.938;2022-10-18T12:34:01;18.20;99.90
12436;DHT22;6282;51.440;6.938;2022-10-18T12:37:06;18.20;99.90
12436;DHT22;6282;51.440;6.938;2022-10-18T12:39:38;18.20;99.90
12436;DHT22;6282;51.440;6.938;2022-10-18T12:42:16;18.20;99.90
12436;DHT22;6282;51.440;6.938;2022-10-18T12:44:46;18.20;99.90
12436;DHT22;6282;51.440;6.938;2022-10-18T12:47:21;18.20;99.90
12436;DHT22;6282;51.440;6.938;2022-10-18T12:49:55;18.10;99.90
12436;DHT22;6282;51.440;6.938;2022-10-18T12:52:24;18.10;99.90
12436;DHT22;6282;51.440;6.938;2022-10-18T12:55:27;18.00;99.90
12436;DHT22;6282;51.440;6.938;2022-10-18T13:00:57;17.90;99.90
12436;DHT22;6282;51.440;6.938;2022-10-18T13:03:49;17.90;99.90
12436;DHT22;6282;51.440;6.938;2022-10-18T13:06:16;17.90;99.90
12436;DHT22;6282;51.440;6.938;2022-10-18T13:08:43;17.80;99.90
12436;DHT22;6282;51.440;6.938;2022-10-18T13:11:26;17.70;99.90
12436;DHT22;6282;51.440;6.938;2022-10-18T13:14:19;17.60;99.90
12436;DHT22;6282;51.440;6.938;2022-10-18T13:16:51;17.40;99.90
12436;DHT22;6282;51.440;6.938;2022-10-18T13:19:23;17.40;99.90
12436;DHT22;6282;51.440;6.938;2022-10-18T13:21:58;17.60;99.90
12436;DHT22;6282;51.440;6.938;2022-10-18T13:24:34;17.70;99.90
12436;DHT22;6282;51.440;6.938;2022-10-18T13:27:17;17.80;99.90
12436;DHT22;6282;51.440;6.938;2022-10-18T13:30:08;18.00;99.90
12436;DHT22;6282;51.440;6.938;2022-10-18T13:32:46;18.00;99.90
12436;DHT22;6282;51.440;6.938;2022-10-18T13:35:50;17.80;99.90
12436;DHT22;6282;51.440;6.938;2022-10-18T13:38:40;18.00;99.90
12436;DHT22;6282;51.440;6.938;2022-10-18T13:41:09;18.00;99.90
12436;DHT22;6282;51.440;6.938;2022-10-18T13:44:07;18.00;99.90
12436;DHT22;6282;51.440;6.938;2022-10-18T13:50:15;18.30;99.90
12436;DHT22;6282;51.440;6.938;2022-10-18T13:53:10;18.20;99.90
12436;DHT22;6282;51.440;6.938;2022-10-18T13:55:51;18.30;99.90
12436;DHT22;6282;51.440;6.938;2022-10-18T13:58:26;18.30;99.90
12436;DHT22;6282;51.440;6.938;2022-10-18T14:01:08;18.30;1.00
12436;DHT22;6282;51.440;6.938;2022-10-18T14:04:05;18.40;99.90
12436;DHT22;6282;51.440;6.938;2022-10-18T14:06:40;18.30;99.90
12436;DHT22;6282;51.440;6.938;2022-10-18T14:09:15;18.20;1.00
12436;DHT22;6282;51.440;6.938;2022-10-18T14:11:46;18.10;1.00
12436;DHT22;6282;51.440;6.938;2022-10-18T14:14:16;18.00;1.00
12436;DHT22;6282;51.440;6.938;2022-10-18T14:16:49;18.00;1.00
12436;DHT22;6282;51.440;6.938;2022-10-18T14:19:27;17.90;1.00
12436;DHT22;6282;51.440;6.938;2022-10-18T14:21:58;17.80;99.90
12436;DHT22;6282;51.440;6.938;2022-10-18T14:24:29;17.90;99.90
12436;DHT22;6282;51.440;6.938;2022-10-18T14:27:09;17.80;99.90
12436;DHT22;6282;51.440;6.938;2022-10-18T14:29:37;17.60;1.00
12436;DHT22;6282;51.440;6.938;2022-10-18T14:32:08;17.60;1.00
12436;DHT22;6282;51.440;6.938;2022-10-18T14:34:36;17.70;99.90
12436;DHT22;6282;51.440;6.938;2022-10-18T14:37:03;17.70;99.90
12436;DHT22;6282;51.440;6.938;2022-10-18T14:39:30;17.70;99.90
12436;DHT22;6282;51.440;6.938;2022-10-18T14:41:57;17.60;1.00
12436;DHT22;6282;51.440;6.938;2022-10-18T14:44:26;17.60;1.00
12436;DHT22;6282;51.440;6.938;2022-10-18T14:46:59;17.60;1.00
12436;DHT22;6282;51.440;6.938;2022-10-18T14:49:28;17.60;1.00
12436;DHT22;6282;51.440;6.938;2022-10-18T14:51:56;17.60;1.00
12436;DHT22;6282;51.440;6.938;2022-10-18T14:54:27;17.60;99.90
12436;DHT22;6282;51.440;6.938;2022-10-18T14:56:55;17.50;1.00
12436;DHT22;6282;51.440;6.938;2022-10-18T14:59:24;17.60;1.00
12436;DHT22;6282;51.440;6.938;2022-10-18T15:01:54;17.40;99.90
12436;DHT22;6282;51.440;6.938;2022-10-18T15:04:22;17.40;99.90
12436;DHT22;6282;51.440;6.938;2022-10-18T15:06:50;17.40;90.00
12436;DHT22;6282;51.440;6.938;2022-10-18T15:09:20;17.30;1.00
12436;DHT22;6282;51.440;6.938;2022-10-18T15:11:48;17.30;99.90
12436;DHT22;6282;51.440;6.938;2022-10-18T15:14:18;17.30;1.00
12436;DHT22;6282;51.440;6.938;2022-10-18T15:16:46;17.20;1.00
12436;DHT22;6282;51.440;6.938;2022-10-18T15:19:28;17.20;1.00
12436;DHT22;6282;51.440;6.938;2022-10-18T15:21:58;17.00;1.00
12436;DHT22;6282;51.440;6.938;2022-10-18T15:24:30;17.10;1.00
12436;DHT22;6282;51.440;6.938;2022-10-18T15:27:00;17.00;99.90
12436;DHT22;6282;51.440;6.938;2022-10-18T15:29:30;16.90;1.00
12436;DHT22;6282;51.440;6.938;2022-10-18T15:32:06;16.90;1.00
12436;DHT22;6282;51.440;6.938;2022-10-18T15:34:34;16.90;99.90
12436;DHT22;6282;51.440;6.938;2022-10-18T15:37:18;16.80;99.90
12436;DHT22;6282;51.440;6.938;2022-10-18T15:40:28;16.80;1.00
12436;DHT22;6282;51.440;6.938;2022-10-18T15:42:57;16.80;1.00
12436;DHT22;6282;51.440;6.938;2022-10-18T15:45:36;16.70;1.00
12436;DHT22;6282;51.440;6.938;2022-10-18T15:48:21;16.70;99.90
12436;DHT22;6282;51.440;6.938;2022-10-18T15:50:50;16.60;1.00
12436;DHT22;6282;51.440;6.938;2022-10-18T15:53:31;16.50;1.00
12436;DHT22;6282;51.440;6.938;2022-10-18T15:56:00;16.40;1.00
12436;DHT22;6282;51.440;6.938;2022-10-18T15:58:35;16.30;99.90
12436;DHT22;6282;51.440;6.938;2022-10-18T16:01:05;16.30;99.90
12436;DHT22;6282;51.440;6.938;2022-10-18T16:03:33;16.30;1.00
12436;DHT22;6282;51.440;6.938;2022-10-18T16:06:03;16.20;99.90
12436;DHT22;6282;51.440;6.938;2022-10-18T16:08:37;15.90;80.10
12436;DHT22;6282;51.440;6.938;2022-10-18T16:11:05;15.70;99.90
12436;DHT22;6282;51.440;6.938;2022-10-18T16:13:32;15.50;99.90
12436;DHT22;6282;51.440;6.938;2022-10-18T16:15:59;15.20;99.90
12436;DHT22;6282;51.440;6.938;2022-10-18T16:18:26;15.20;99.90
12436;DHT22;6282;51.440;6.938;2022-10-18T16:20:53;15.10;99.90
12436;DHT22;6282;51.440;6.938;2022-10-18T16:23:22;15.00;99.90
12436;DHT22;6282;51.440;6.938;2022-10-18T16:25:51;14.80;99.90
12436;DHT22;6282;51.440;6.938;2022-10-18T16:28:20;14.70;99.90